Información del aeropuerto KMFR

Información de pista
Pista 09 Longitud 3136 ft Anchura 100 ft
Elevación 1308 ft Umbral 0 ft Rumbo 113
Pista 27 Longitud 3136 ft Anchura 100 ft
Elevación 1320 ft Umbral 0 ft Rumbo 293
Pista 14 Longitud 8800 ft Anchura 150 ft
Elevación 1298 ft Umbral 0 ft Rumbo 159
Pista 32 Longitud 8800 ft Anchura 150 ft
Elevación 1335 ft Umbral 0 ft Rumbo 339
Frecuencias del aeropuerto
Tipo A/D Nombre CASCADE AP Frecuencia 124.3 MHZ
Tipo ATIS Nombre ATIS Frecuencia 127.25 MHZ
Tipo CTAF Nombre CTAF Frecuencia 119.4 MHZ
Tipo GND Nombre GND Frecuencia 121.8 MHZ
Tipo RDO Nombre MC MINNVIL Frecuencia 122.65 MHZ
Tipo TWR Nombre MEDFORD TW Frecuencia 119.4 MHZ
Tipo UNIC Nombre UNICOM Frecuencia 122.95 MHZ
Radioayudas del aeropuerto
Tipo NDB Nombre Medford Frecuencia 356 KHZ
Tipo NDB Nombre Pumie Frecuencia 373 KHZ
Información meteorológica del aeropuerto y NOTAM
ADDS - METARS form results

(0554 UTC 22 September 2021)
Data provider http://aviationweather.gov/metar/data/
 
Forecast for: KMFR (MEDFORD , OR, US)
Text: KMFR 212332Z 2200/2224 31005KT P6SM SKC
Forecast period: 0000 UTC 22 September 2021 to 0000 UTC 23 September 2021
Forecast type: FROM: standard forecast or significant change
Winds: from the NW (310 degrees) at 6 MPH (5 knots; 2.6 m/s)
Visibility: 6 or more miles (10+ km)
Clouds: clear skies
Weather: no significant weather forecast for this period